<?xml version="1.0" encoding="UTF-8" standalone="no" ?>
<gpx xmlns="http://www.topografix.com/GPX/1/1" xmlns:xsi="http://www.w3.org/2001/XMLSchema-instance" xsi:schemaLocation="http://www.topografix.com/GPX/1/1 http://www.topografix.com/GPX/1/1/gpx.xsd" version="1.1" creator="VisuGPX - https://www.visugpx.com">
  <metadata>
    <name>sentier des mines de Doulovy</name>
    <desc><![CDATA[Ballade tranquille de 1h20 dans la pinède, à la découverte, à partir du viaduc de Doulovy, d\'anciennes mines de charbon.]]></desc>
  </metadata>
  <trk>
    <name><![CDATA[2014-08-14-01]]></name>
    <trkseg>
      <trkpt lat="44.34185" lon="4.12708">
        <ele>252.3</ele>
        <time>2014-08-14T15:47:07Z</time>
      </trkpt>
      <trkpt lat="44.34185" lon="4.12708">
        <ele>253.1</ele>
        <time>2014-08-14T15:47:08Z</time>
      </trkpt>
      <trkpt lat="44.34156" lon="4.12684">
        <ele>247.3</ele>
        <time>2014-08-14T15:48:33Z</time>
      </trkpt>
      <trkpt lat="44.34156" lon="4.12684">
        <ele>247.1</ele>
        <time>2014-08-14T15:48:34Z</time>
      </trkpt>
      <trkpt lat="44.34169" lon="4.12638">
        <ele>243.8</ele>
        <time>2014-08-14T15:49:43Z</time>
      </trkpt>
      <trkpt lat="44.34169" lon="4.12638">
        <ele>243.3</ele>
        <time>2014-08-14T15:49:44Z</time>
      </trkpt>
      <trkpt lat="44.34175" lon="4.12589">
        <ele>236.6</ele>
        <time>2014-08-14T15:50:51Z</time>
      </trkpt>
      <trkpt lat="44.34175" lon="4.12589">
        <ele>236.6</ele>
        <time>2014-08-14T15:50:52Z</time>
      </trkpt>
      <trkpt lat="44.3418" lon="4.12541">
        <ele>236.3</ele>
        <time>2014-08-14T15:51:53Z</time>
      </trkpt>
      <trkpt lat="44.3418" lon="4.1254">
        <ele>236.5</ele>
        <time>2014-08-14T15:51:54Z</time>
      </trkpt>
      <trkpt lat="44.34183" lon="4.12492">
        <ele>240.3</ele>
        <time>2014-08-14T15:52:35Z</time>
      </trkpt>
      <trkpt lat="44.34186" lon="4.12468">
        <ele>241.3</ele>
        <time>2014-08-14T15:52:55Z</time>
      </trkpt>
      <trkpt lat="44.34187" lon="4.12467">
        <ele>242.1</ele>
        <time>2014-08-14T15:52:56Z</time>
      </trkpt>
      <trkpt lat="44.3419" lon="4.12419">
        <ele>248.8</ele>
        <time>2014-08-14T15:53:47Z</time>
      </trkpt>
      <trkpt lat="44.34194" lon="4.12395">
        <ele>252</ele>
        <time>2014-08-14T15:54:14Z</time>
      </trkpt>
      <trkpt lat="44.34194" lon="4.12394">
        <ele>251.6</ele>
        <time>2014-08-14T15:54:15Z</time>
      </trkpt>
      <trkpt lat="44.34196" lon="4.12345">
        <ele>258.2</ele>
        <time>2014-08-14T15:54:47Z</time>
      </trkpt>
      <trkpt lat="44.34205" lon="4.12325">
        <ele>258.2</ele>
        <time>2014-08-14T15:55:09Z</time>
      </trkpt>
      <trkpt lat="44.34209" lon="4.12302">
        <ele>256</ele>
        <time>2014-08-14T15:55:27Z</time>
      </trkpt>
      <trkpt lat="44.34209" lon="4.12301">
        <ele>255.8</ele>
        <time>2014-08-14T15:55:28Z</time>
      </trkpt>
      <trkpt lat="44.34224" lon="4.12257">
        <ele>255.6</ele>
        <time>2014-08-14T15:56:07Z</time>
      </trkpt>
      <trkpt lat="44.34239" lon="4.12247">
        <ele>255.8</ele>
        <time>2014-08-14T15:56:25Z</time>
      </trkpt>
      <trkpt lat="44.34257" lon="4.12245">
        <ele>257.7</ele>
        <time>2014-08-14T15:56:41Z</time>
      </trkpt>
      <trkpt lat="44.34258" lon="4.12245">
        <ele>258.2</ele>
        <time>2014-08-14T15:56:42Z</time>
      </trkpt>
      <trkpt lat="44.3428" lon="4.12214">
        <ele>260.1</ele>
        <time>2014-08-14T15:57:18Z</time>
      </trkpt>
      <trkpt lat="44.34278" lon="4.12189">
        <ele>257.1</ele>
        <time>2014-08-14T15:57:35Z</time>
      </trkpt>
      <trkpt lat="44.34275" lon="4.12165">
        <ele>257.2</ele>
        <time>2014-08-14T15:57:51Z</time>
      </trkpt>
      <trkpt lat="44.34274" lon="4.12163">
        <ele>259.2</ele>
        <time>2014-08-14T15:57:52Z</time>
      </trkpt>
      <trkpt lat="44.34272" lon="4.12118">
        <ele>256</ele>
        <time>2014-08-14T15:58:46Z</time>
      </trkpt>
      <trkpt lat="44.34289" lon="4.12114">
        <ele>257.2</ele>
        <time>2014-08-14T15:59:03Z</time>
      </trkpt>
      <trkpt lat="44.34291" lon="4.12114">
        <ele>258.2</ele>
        <time>2014-08-14T15:59:04Z</time>
      </trkpt>
      <trkpt lat="44.34321" lon="4.12128">
        <ele>263.5</ele>
        <time>2014-08-14T15:59:55Z</time>
      </trkpt>
      <trkpt lat="44.34334" lon="4.12143">
        <ele>263.7</ele>
        <time>2014-08-14T16:00:15Z</time>
      </trkpt>
      <trkpt lat="44.34335" lon="4.12143">
        <ele>263.7</ele>
        <time>2014-08-14T16:00:16Z</time>
      </trkpt>
      <trkpt lat="44.34367" lon="4.12131">
        <ele>255.5</ele>
        <time>2014-08-14T16:01:05Z</time>
      </trkpt>
      <trkpt lat="44.34379" lon="4.12114">
        <ele>259.1</ele>
        <time>2014-08-14T16:01:20Z</time>
      </trkpt>
      <trkpt lat="44.3438" lon="4.12112">
        <ele>259.2</ele>
        <time>2014-08-14T16:01:21Z</time>
      </trkpt>
      <trkpt lat="44.3437" lon="4.12067">
        <ele>260.2</ele>
        <time>2014-08-14T16:01:57Z</time>
      </trkpt>
      <trkpt lat="44.34373" lon="4.12043">
        <ele>262.1</ele>
        <time>2014-08-14T16:02:17Z</time>
      </trkpt>
      <trkpt lat="44.34389" lon="4.12032">
        <ele>254.8</ele>
        <time>2014-08-14T16:02:42Z</time>
      </trkpt>
      <trkpt lat="44.34391" lon="4.12032">
        <ele>256.2</ele>
        <time>2014-08-14T16:02:43Z</time>
      </trkpt>
      <trkpt lat="44.34411" lon="4.12055">
        <ele>240.8</ele>
        <time>2014-08-14T16:03:31Z</time>
      </trkpt>
      <trkpt lat="44.34418" lon="4.12077">
        <ele>250.8</ele>
        <time>2014-08-14T16:03:52Z</time>
      </trkpt>
      <trkpt lat="44.34419" lon="4.12078">
        <ele>251.5</ele>
        <time>2014-08-14T16:03:53Z</time>
      </trkpt>
      <trkpt lat="44.34447" lon="4.12104">
        <ele>256.7</ele>
        <time>2014-08-14T16:04:32Z</time>
      </trkpt>
      <trkpt lat="44.34459" lon="4.12122">
        <ele>253</ele>
        <time>2014-08-14T16:04:59Z</time>
      </trkpt>
      <trkpt lat="44.3446" lon="4.12122">
        <ele>253.3</ele>
        <time>2014-08-14T16:05:00Z</time>
      </trkpt>
      <trkpt lat="44.34461" lon="4.12097">
        <ele>251.1</ele>
        <time>2014-08-14T16:06:20Z</time>
      </trkpt>
      <trkpt lat="44.3448" lon="4.12069">
        <ele>262.1</ele>
        <time>2014-08-14T16:07:04Z</time>
      </trkpt>
      <trkpt lat="44.34496" lon="4.12058">
        <ele>251.3</ele>
        <time>2014-08-14T16:07:29Z</time>
      </trkpt>
      <trkpt lat="44.34496" lon="4.12057">
        <ele>251.1</ele>
        <time>2014-08-14T16:07:30Z</time>
      </trkpt>
      <trkpt lat="44.34525" lon="4.12038">
        <ele>259.2</ele>
        <time>2014-08-14T16:10:04Z</time>
      </trkpt>
      <trkpt lat="44.34526" lon="4.12037">
        <ele>258</ele>
        <time>2014-08-14T16:10:05Z</time>
      </trkpt>
      <trkpt lat="44.34541" lon="4.12027">
        <ele>255.1</ele>
        <time>2014-08-14T16:11:28Z</time>
      </trkpt>
      <trkpt lat="44.34568" lon="4.12004">
        <ele>249.8</ele>
        <time>2014-08-14T16:12:08Z</time>
      </trkpt>
      <trkpt lat="44.34582" lon="4.11988">
        <ele>250.8</ele>
        <time>2014-08-14T16:12:27Z</time>
      </trkpt>
      <trkpt lat="44.34599" lon="4.11987">
        <ele>251.6</ele>
        <time>2014-08-14T16:12:41Z</time>
      </trkpt>
      <trkpt lat="44.346" lon="4.11987">
        <ele>252.3</ele>
        <time>2014-08-14T16:12:42Z</time>
      </trkpt>
      <trkpt lat="44.34624" lon="4.11952">
        <ele>258.2</ele>
        <time>2014-08-14T16:13:25Z</time>
      </trkpt>
      <trkpt lat="44.34639" lon="4.11942">
        <ele>255</ele>
        <time>2014-08-14T16:13:46Z</time>
      </trkpt>
      <trkpt lat="44.3464" lon="4.11942">
        <ele>255.8</ele>
        <time>2014-08-14T16:13:47Z</time>
      </trkpt>
      <trkpt lat="44.34673" lon="4.11933">
        <ele>262.5</ele>
        <time>2014-08-14T16:14:28Z</time>
      </trkpt>
      <trkpt lat="44.34684" lon="4.11913">
        <ele>257.1</ele>
        <time>2014-08-14T16:14:51Z</time>
      </trkpt>
      <trkpt lat="44.34683" lon="4.11912">
        <ele>257.2</ele>
        <time>2014-08-14T16:14:52Z</time>
      </trkpt>
      <trkpt lat="44.34704" lon="4.11876">
        <ele>251.8</ele>
        <time>2014-08-14T16:15:32Z</time>
      </trkpt>
      <trkpt lat="44.34714" lon="4.11855">
        <ele>250.6</ele>
        <time>2014-08-14T16:15:51Z</time>
      </trkpt>
      <trkpt lat="44.3473" lon="4.1185">
        <ele>265.5</ele>
        <time>2014-08-14T16:16:15Z</time>
      </trkpt>
      <trkpt lat="44.34732" lon="4.11849">
        <ele>266.2</ele>
        <time>2014-08-14T16:16:16Z</time>
      </trkpt>
      <trkpt lat="44.34754" lon="4.11882">
        <ele>257.2</ele>
        <time>2014-08-14T16:17:08Z</time>
      </trkpt>
      <trkpt lat="44.34771" lon="4.11875">
        <ele>256.7</ele>
        <time>2014-08-14T16:17:25Z</time>
      </trkpt>
      <trkpt lat="44.34772" lon="4.11874">
        <ele>257.2</ele>
        <time>2014-08-14T16:17:26Z</time>
      </trkpt>
      <trkpt lat="44.34794" lon="4.11839">
        <ele>259.7</ele>
        <time>2014-08-14T16:18:17Z</time>
      </trkpt>
      <trkpt lat="44.34811" lon="4.11845">
        <ele>265.2</ele>
        <time>2014-08-14T16:19:20Z</time>
      </trkpt>
      <trkpt lat="44.34812" lon="4.11845">
        <ele>266.1</ele>
        <time>2014-08-14T16:19:21Z</time>
      </trkpt>
      <trkpt lat="44.34799" lon="4.11806">
        <ele>269.2</ele>
        <time>2014-08-14T16:20:01Z</time>
      </trkpt>
      <trkpt lat="44.34813" lon="4.11792">
        <ele>275.2</ele>
        <time>2014-08-14T16:20:42Z</time>
      </trkpt>
      <trkpt lat="44.34814" lon="4.11791">
        <ele>275.2</ele>
        <time>2014-08-14T16:20:43Z</time>
      </trkpt>
      <trkpt lat="44.34808" lon="4.11817">
        <ele>268.2</ele>
        <time>2014-08-14T16:23:14Z</time>
      </trkpt>
      <trkpt lat="44.34822" lon="4.11852">
        <ele>266.6</ele>
        <time>2014-08-14T16:24:27Z</time>
      </trkpt>
      <trkpt lat="44.34823" lon="4.11852">
        <ele>266.6</ele>
        <time>2014-08-14T16:24:28Z</time>
      </trkpt>
      <trkpt lat="44.34855" lon="4.11862">
        <ele>260.2</ele>
        <time>2014-08-14T16:25:13Z</time>
      </trkpt>
      <trkpt lat="44.34873" lon="4.1186">
        <ele>260.7</ele>
        <time>2014-08-14T16:25:35Z</time>
      </trkpt>
      <trkpt lat="44.34874" lon="4.1186">
        <ele>260.7</ele>
        <time>2014-08-14T16:25:36Z</time>
      </trkpt>
      <trkpt lat="44.34908" lon="4.11862">
        <ele>267.5</ele>
        <time>2014-08-14T16:26:21Z</time>
      </trkpt>
      <trkpt lat="44.34925" lon="4.11862">
        <ele>264.2</ele>
        <time>2014-08-14T16:26:53Z</time>
      </trkpt>
      <trkpt lat="44.34926" lon="4.11862">
        <ele>264.7</ele>
        <time>2014-08-14T16:26:54Z</time>
      </trkpt>
      <trkpt lat="44.3496" lon="4.11864">
        <ele>266.7</ele>
        <time>2014-08-14T16:27:37Z</time>
      </trkpt>
      <trkpt lat="44.34978" lon="4.11861">
        <ele>262.6</ele>
        <time>2014-08-14T16:28:10Z</time>
      </trkpt>
      <trkpt lat="44.34978" lon="4.11861">
        <ele>263</ele>
        <time>2014-08-14T16:28:11Z</time>
      </trkpt>
      <trkpt lat="44.35012" lon="4.11848">
        <ele>259.7</ele>
        <time>2014-08-14T16:29:02Z</time>
      </trkpt>
      <trkpt lat="44.35028" lon="4.11838">
        <ele>262.6</ele>
        <time>2014-08-14T16:29:27Z</time>
      </trkpt>
      <trkpt lat="44.35029" lon="4.11837">
        <ele>262.2</ele>
        <time>2014-08-14T16:29:28Z</time>
      </trkpt>
      <trkpt lat="44.35041" lon="4.11792">
        <ele>269.7</ele>
        <time>2014-08-14T16:30:05Z</time>
      </trkpt>
      <trkpt lat="44.3505" lon="4.1177">
        <ele>271.2</ele>
        <time>2014-08-14T16:30:27Z</time>
      </trkpt>
      <trkpt lat="44.35032" lon="4.11773">
        <ele>273.2</ele>
        <time>2014-08-14T16:30:59Z</time>
      </trkpt>
      <trkpt lat="44.35032" lon="4.11773">
        <ele>273.7</ele>
        <time>2014-08-14T16:31:00Z</time>
      </trkpt>
      <trkpt lat="44.3503" lon="4.11747">
        <ele>276.7</ele>
        <time>2014-08-14T16:32:59Z</time>
      </trkpt>
      <trkpt lat="44.35017" lon="4.11733">
        <ele>274.2</ele>
        <time>2014-08-14T16:34:23Z</time>
      </trkpt>
      <trkpt lat="44.34996" lon="4.11768">
        <ele>277.2</ele>
        <time>2014-08-14T16:35:15Z</time>
      </trkpt>
      <trkpt lat="44.34985" lon="4.11748">
        <ele>283.6</ele>
        <time>2014-08-14T16:35:57Z</time>
      </trkpt>
      <trkpt lat="44.34985" lon="4.11747">
        <ele>283.2</ele>
        <time>2014-08-14T16:35:58Z</time>
      </trkpt>
      <trkpt lat="44.34951" lon="4.11742">
        <ele>283.2</ele>
        <time>2014-08-14T16:37:03Z</time>
      </trkpt>
      <trkpt lat="44.34951" lon="4.11742">
        <ele>283.1</ele>
        <time>2014-08-14T16:37:04Z</time>
      </trkpt>
      <trkpt lat="44.34916" lon="4.11732">
        <ele>284.6</ele>
        <time>2014-08-14T16:38:11Z</time>
      </trkpt>
      <trkpt lat="44.34916" lon="4.11733">
        <ele>284.6</ele>
        <time>2014-08-14T16:38:12Z</time>
      </trkpt>
      <trkpt lat="44.34882" lon="4.11722">
        <ele>280.6</ele>
        <time>2014-08-14T16:39:02Z</time>
      </trkpt>
      <trkpt lat="44.34868" lon="4.11706">
        <ele>279.7</ele>
        <time>2014-08-14T16:39:30Z</time>
      </trkpt>
      <trkpt lat="44.34868" lon="4.11705">
        <ele>279.2</ele>
        <time>2014-08-14T16:39:31Z</time>
      </trkpt>
      <trkpt lat="44.34858" lon="4.11662">
        <ele>283.7</ele>
        <time>2014-08-14T16:40:32Z</time>
      </trkpt>
      <trkpt lat="44.34858" lon="4.11661">
        <ele>284.1</ele>
        <time>2014-08-14T16:40:33Z</time>
      </trkpt>
      <trkpt lat="44.34829" lon="4.11659">
        <ele>294.6</ele>
        <time>2014-08-14T16:41:20Z</time>
      </trkpt>
      <trkpt lat="44.34812" lon="4.11652">
        <ele>287.2</ele>
        <time>2014-08-14T16:41:55Z</time>
      </trkpt>
      <trkpt lat="44.34811" lon="4.11653">
        <ele>286.7</ele>
        <time>2014-08-14T16:41:56Z</time>
      </trkpt>
      <trkpt lat="44.34787" lon="4.1165">
        <ele>285.2</ele>
        <time>2014-08-14T16:42:48Z</time>
      </trkpt>
      <trkpt lat="44.34774" lon="4.11636">
        <ele>294.2</ele>
        <time>2014-08-14T16:43:09Z</time>
      </trkpt>
      <trkpt lat="44.34772" lon="4.11636">
        <ele>295.2</ele>
        <time>2014-08-14T16:43:10Z</time>
      </trkpt>
      <trkpt lat="44.34742" lon="4.11655">
        <ele>299.7</ele>
        <time>2014-08-14T16:44:28Z</time>
      </trkpt>
      <trkpt lat="44.34742" lon="4.11656">
        <ele>299.5</ele>
        <time>2014-08-14T16:44:29Z</time>
      </trkpt>
      <trkpt lat="44.34714" lon="4.11681">
        <ele>297.7</ele>
        <time>2014-08-14T16:45:26Z</time>
      </trkpt>
      <trkpt lat="44.34705" lon="4.11703">
        <ele>293.7</ele>
        <time>2014-08-14T16:45:51Z</time>
      </trkpt>
      <trkpt lat="44.34704" lon="4.11703">
        <ele>293.7</ele>
        <time>2014-08-14T16:45:52Z</time>
      </trkpt>
      <trkpt lat="44.34673" lon="4.11687">
        <ele>289.2</ele>
        <time>2014-08-14T16:47:04Z</time>
      </trkpt>
      <trkpt lat="44.34673" lon="4.11686">
        <ele>289.2</ele>
        <time>2014-08-14T16:47:05Z</time>
      </trkpt>
      <trkpt lat="44.34641" lon="4.1169">
        <ele>303.2</ele>
        <time>2014-08-14T16:48:03Z</time>
      </trkpt>
      <trkpt lat="44.34633" lon="4.11712">
        <ele>280.5</ele>
        <time>2014-08-14T16:48:44Z</time>
      </trkpt>
      <trkpt lat="44.34633" lon="4.11713">
        <ele>280.2</ele>
        <time>2014-08-14T16:48:45Z</time>
      </trkpt>
      <trkpt lat="44.34632" lon="4.1176">
        <ele>292.7</ele>
        <time>2014-08-14T16:49:31Z</time>
      </trkpt>
      <trkpt lat="44.34641" lon="4.11783">
        <ele>278.6</ele>
        <time>2014-08-14T16:50:05Z</time>
      </trkpt>
      <trkpt lat="44.34641" lon="4.11783">
        <ele>278.1</ele>
        <time>2014-08-14T16:50:06Z</time>
      </trkpt>
      <trkpt lat="44.34641" lon="4.11832">
        <ele>282</ele>
        <time>2014-08-14T16:51:03Z</time>
      </trkpt>
      <trkpt lat="44.34633" lon="4.11854">
        <ele>282.5</ele>
        <time>2014-08-14T16:51:20Z</time>
      </trkpt>
      <trkpt lat="44.34632" lon="4.11855">
        <ele>281.1</ele>
        <time>2014-08-14T16:51:21Z</time>
      </trkpt>
      <trkpt lat="44.34612" lon="4.11892">
        <ele>279.1</ele>
        <time>2014-08-14T16:51:59Z</time>
      </trkpt>
      <trkpt lat="44.34598" lon="4.11909">
        <ele>282.5</ele>
        <time>2014-08-14T16:52:27Z</time>
      </trkpt>
      <trkpt lat="44.34598" lon="4.1191">
        <ele>283.6</ele>
        <time>2014-08-14T16:52:28Z</time>
      </trkpt>
      <trkpt lat="44.34578" lon="4.11948">
        <ele>274.7</ele>
        <time>2014-08-14T16:53:31Z</time>
      </trkpt>
      <trkpt lat="44.34577" lon="4.1195">
        <ele>274.2</ele>
        <time>2014-08-14T16:53:32Z</time>
      </trkpt>
      <trkpt lat="44.34557" lon="4.11984">
        <ele>264.7</ele>
        <time>2014-08-14T16:54:37Z</time>
      </trkpt>
      <trkpt lat="44.34556" lon="4.11985">
        <ele>264.2</ele>
        <time>2014-08-14T16:54:38Z</time>
      </trkpt>
      <trkpt lat="44.34535" lon="4.12019">
        <ele>261.1</ele>
        <time>2014-08-14T16:55:15Z</time>
      </trkpt>
      <trkpt lat="44.34527" lon="4.12041">
        <ele>261.7</ele>
        <time>2014-08-14T16:55:45Z</time>
      </trkpt>
      <trkpt lat="44.34527" lon="4.12043">
        <ele>262.7</ele>
        <time>2014-08-14T16:55:46Z</time>
      </trkpt>
      <trkpt lat="44.34509" lon="4.12044">
        <ele>252</ele>
        <time>2014-08-14T16:57:30Z</time>
      </trkpt>
      <trkpt lat="44.3448" lon="4.12071">
        <ele>251.3</ele>
        <time>2014-08-14T16:58:05Z</time>
      </trkpt>
      <trkpt lat="44.34464" lon="4.12079">
        <ele>251.8</ele>
        <time>2014-08-14T16:58:20Z</time>
      </trkpt>
      <trkpt lat="44.34449" lon="4.12068">
        <ele>245.8</ele>
        <time>2014-08-14T16:58:45Z</time>
      </trkpt>
      <trkpt lat="44.34448" lon="4.12067">
        <ele>246.1</ele>
        <time>2014-08-14T16:58:46Z</time>
      </trkpt>
      <trkpt lat="44.34433" lon="4.12025">
        <ele>256.1</ele>
        <time>2014-08-14T16:59:23Z</time>
      </trkpt>
      <trkpt lat="44.34424" lon="4.12003">
        <ele>246.5</ele>
        <time>2014-08-14T16:59:51Z</time>
      </trkpt>
      <trkpt lat="44.34424" lon="4.12003">
        <ele>246.8</ele>
        <time>2014-08-14T16:59:52Z</time>
      </trkpt>
      <trkpt lat="44.34393" lon="4.12026">
        <ele>252.6</ele>
        <time>2014-08-14T17:00:28Z</time>
      </trkpt>
      <trkpt lat="44.34379" lon="4.1204">
        <ele>254.3</ele>
        <time>2014-08-14T17:00:43Z</time>
      </trkpt>
      <trkpt lat="44.34371" lon="4.12062">
        <ele>257.7</ele>
        <time>2014-08-14T17:00:59Z</time>
      </trkpt>
      <trkpt lat="44.34371" lon="4.12064">
        <ele>258.2</ele>
        <time>2014-08-14T17:01:00Z</time>
      </trkpt>
      <trkpt lat="44.34373" lon="4.1211">
        <ele>251.1</ele>
        <time>2014-08-14T17:01:43Z</time>
      </trkpt>
      <trkpt lat="44.34365" lon="4.1213">
        <ele>255.8</ele>
        <time>2014-08-14T17:02:03Z</time>
      </trkpt>
      <trkpt lat="44.34364" lon="4.12132">
        <ele>256.1</ele>
        <time>2014-08-14T17:02:04Z</time>
      </trkpt>
      <trkpt lat="44.34333" lon="4.12148">
        <ele>255</ele>
        <time>2014-08-14T17:02:42Z</time>
      </trkpt>
      <trkpt lat="44.34323" lon="4.12128">
        <ele>250.6</ele>
        <time>2014-08-14T17:03:02Z</time>
      </trkpt>
      <trkpt lat="44.34308" lon="4.12115">
        <ele>247.5</ele>
        <time>2014-08-14T17:03:25Z</time>
      </trkpt>
      <trkpt lat="44.34307" lon="4.12115">
        <ele>247.1</ele>
        <time>2014-08-14T17:03:26Z</time>
      </trkpt>
      <trkpt lat="44.34275" lon="4.12122">
        <ele>252.6</ele>
        <time>2014-08-14T17:04:01Z</time>
      </trkpt>
      <trkpt lat="44.34271" lon="4.12146">
        <ele>252.1</ele>
        <time>2014-08-14T17:04:24Z</time>
      </trkpt>
      <trkpt lat="44.34278" lon="4.12169">
        <ele>246.8</ele>
        <time>2014-08-14T17:04:47Z</time>
      </trkpt>
      <trkpt lat="44.34278" lon="4.12171">
        <ele>247</ele>
        <time>2014-08-14T17:04:48Z</time>
      </trkpt>
      <trkpt lat="44.34278" lon="4.12219">
        <ele>253.5</ele>
        <time>2014-08-14T17:05:24Z</time>
      </trkpt>
      <trkpt lat="44.34269" lon="4.1224">
        <ele>256.2</ele>
        <time>2014-08-14T17:05:42Z</time>
      </trkpt>
      <trkpt lat="44.34253" lon="4.1225">
        <ele>251.5</ele>
        <time>2014-08-14T17:05:58Z</time>
      </trkpt>
      <trkpt lat="44.34253" lon="4.12251">
        <ele>251.1</ele>
        <time>2014-08-14T17:05:59Z</time>
      </trkpt>
      <trkpt lat="44.34223" lon="4.12271">
        <ele>254.3</ele>
        <time>2014-08-14T17:06:34Z</time>
      </trkpt>
      <trkpt lat="44.34216" lon="4.12294">
        <ele>254.1</ele>
        <time>2014-08-14T17:06:54Z</time>
      </trkpt>
      <trkpt lat="44.34208" lon="4.12315">
        <ele>259.7</ele>
        <time>2014-08-14T17:07:08Z</time>
      </trkpt>
      <trkpt lat="44.34207" lon="4.12317">
        <ele>259.6</ele>
        <time>2014-08-14T17:07:09Z</time>
      </trkpt>
      <trkpt lat="44.34197" lon="4.12362">
        <ele>248.8</ele>
        <time>2014-08-14T17:07:46Z</time>
      </trkpt>
      <trkpt lat="44.34194" lon="4.12386">
        <ele>248.3</ele>
        <time>2014-08-14T17:08:07Z</time>
      </trkpt>
      <trkpt lat="44.34192" lon="4.1241">
        <ele>250.1</ele>
        <time>2014-08-14T17:08:31Z</time>
      </trkpt>
      <trkpt lat="44.34192" lon="4.12412">
        <ele>250.1</ele>
        <time>2014-08-14T17:08:32Z</time>
      </trkpt>
      <trkpt lat="44.34189" lon="4.12459">
        <ele>250</ele>
        <time>2014-08-14T17:09:17Z</time>
      </trkpt>
      <trkpt lat="44.34186" lon="4.12483">
        <ele>249.5</ele>
        <time>2014-08-14T17:09:37Z</time>
      </trkpt>
      <trkpt lat="44.34186" lon="4.12484">
        <ele>249.5</ele>
        <time>2014-08-14T17:09:38Z</time>
      </trkpt>
      <trkpt lat="44.34182" lon="4.12531">
        <ele>249.6</ele>
        <time>2014-08-14T17:10:17Z</time>
      </trkpt>
      <trkpt lat="44.34179" lon="4.12556">
        <ele>248.6</ele>
        <time>2014-08-14T17:10:57Z</time>
      </trkpt>
      <trkpt lat="44.34179" lon="4.12557">
        <ele>248.6</ele>
        <time>2014-08-14T17:10:58Z</time>
      </trkpt>
      <trkpt lat="44.34172" lon="4.12603">
        <ele>250</ele>
        <time>2014-08-14T17:11:45Z</time>
      </trkpt>
      <trkpt lat="44.3417" lon="4.12627">
        <ele>250.5</ele>
        <time>2014-08-14T17:12:02Z</time>
      </trkpt>
      <trkpt lat="44.3417" lon="4.12629">
        <ele>250.6</ele>
        <time>2014-08-14T17:12:03Z</time>
      </trkpt>
      <trkpt lat="44.34162" lon="4.12675">
        <ele>252.3</ele>
        <time>2014-08-14T17:12:55Z</time>
      </trkpt>
      <trkpt lat="44.34175" lon="4.12691">
        <ele>252.3</ele>
        <time>2014-08-14T17:13:29Z</time>
      </trkpt>
      <trkpt lat="44.34175" lon="4.12692">
        <ele>252.1</ele>
        <time>2014-08-14T17:13:30Z</time>
      </trkpt>
    </trkseg>
  </trk>
</gpx>